»·PEaware :: N172RB KSMX-KBFL

N172RB :: KSMX-KBFL

FLIGHT INFORMATION

Flight Status: Arrived
Operator: Privately registered:
United States
More flights under this callsign
Pilot: Newton D. (19172)
Aircraft: CESSNA 172 SKYHAWK
(C172)
More flights by this aircraft type
Origin: KSMX Santa Maria Pub/Capt Hancock
United States
Destination: KBFL Meadows
United States
More flights between these airports :: More routes between these airports
Route: +
File this flight plan on PilotEdge
Remarks:
Altitude:
(Current/Filed)
7,500ft
Speed:
(Current/Filed)
110kts
Departed: 15-May-18 05:35 PM
Arrived: 15-May-18 06:30 PM
Distance/Time
Traveled:
76nm/0:55
Distance/Time
To Go:
Arrived

Flight Plot

Page will automatically refresh every two minutes.


Map Options




Map Legend


Flown Route
Filed Route
Departure Airport
Arrival Airport
Navaid (VOR, NDB)
Fix

Horizontal Profiles

Position Reports

Time Latitude Longitude Heading Altitude Ground
Speed
15-May-18 17:27 34.890704 -120.448862 29 265ft 0kts
15-May-18 17:28 34.890704 -120.448862 29 265ft 0kts
15-May-18 17:29 34.890704 -120.448862 29 265ft 0kts
15-May-18 17:30 34.890704 -120.448862 29 265ft 0kts
15-May-18 17:31 34.891604 -120.446461 45 265ft 12kts
15-May-18 17:32 34.891901 -120.446097 42 265ft 0kts
15-May-18 17:33 34.891901 -120.446097 42 265ft 0kts
15-May-18 17:34 34.892461 -120.445684 324 265ft 16kts
15-May-18 17:35 34.906050 -120.461507 318 807ft 80kts
15-May-18 17:36 34.913804 -120.447182 97 1589ft 80kts
15-May-18 17:37 34.912606 -120.418919 87 2233ft 85kts
15-May-18 17:38 34.914999 -120.389780 66 2818ft 88kts
15-May-18 17:39 34.924009 -120.361930 65 3407ft 88kts
15-May-18 17:40 34.933925 -120.334403 61 3960ft 89kts
15-May-18 17:41 34.943992 -120.306616 63 4487ft 90kts
15-May-18 17:42 34.955854 -120.279919 64 4980ft 91kts
15-May-18 17:43 34.966441 -120.251779 63 5456ft 91kts
15-May-18 17:44 34.978605 -120.224476 62 5905ft 92kts
15-May-18 17:45 34.989623 -120.196148 63 6331ft 93kts
15-May-18 17:46 35.000955 -120.167959 61 6730ft 93kts
15-May-18 17:47 35.011844 -120.139761 62 7104ft 93kts
15-May-18 17:48 35.022931 -120.110814 66 7367ft 100kts
15-May-18 17:49 35.035031 -120.080648 65 7397ft 98kts
15-May-18 17:50 35.046430 -120.050390 63 7415ft 98kts
15-May-18 17:51 35.058225 -120.020172 63 7418ft 99kts
15-May-18 17:52 35.070099 -119.989809 63 7418ft 99kts
15-May-18 17:53 35.081271 -119.961235 63 7418ft 99kts
15-May-18 17:54 35.093156 -119.930773 64 7418ft 99kts
15-May-18 17:55 35.104734 -119.901061 64 7418ft 99kts
15-May-18 17:56 35.116677 -119.870414 64 7418ft 99kts
15-May-18 17:57 35.128633 -119.839820 63 7419ft 99kts
15-May-18 17:58 35.140900 -119.809413 60 7419ft 99kts
15-May-18 17:59 35.154155 -119.779691 60 7419ft 99kts
15-May-18 18:00 35.166088 -119.749115 64 7419ft 100kts
15-May-18 18:01 35.177656 -119.718218 64 7419ft 100kts
15-May-18 18:02 35.189220 -119.687340 64 7419ft 100kts
15-May-18 18:03 35.200781 -119.656484 63 7418ft 100kts
15-May-18 18:04 35.213128 -119.625993 63 7418ft 99kts
15-May-18 18:05 35.225546 -119.595647 62 7419ft 99kts
15-May-18 18:06 35.237928 -119.565320 62 7418ft 100kts
15-May-18 18:07 35.250117 -119.534763 64 7418ft 100kts
15-May-18 18:08 35.261658 -119.503839 64 7418ft 100kts
15-May-18 18:09 35.272411 -119.474500 64 7122ft 90kts
15-May-18 18:10 35.282342 -119.446428 69 6408ft 90kts
15-May-18 18:11 35.293514 -119.419573 56 5734ft 86kts
15-May-18 18:12 35.303855 -119.393865 68 5148ft 80kts
15-May-18 18:13 35.313444 -119.368438 65 4652ft 85kts
15-May-18 18:14 35.323830 -119.341223 63 4407ft 94kts
15-May-18 18:15 35.335405 -119.311439 65 4094ft 98kts
15-May-18 18:16 35.346216 -119.282459 63 3946ft 89kts
15-May-18 18:17 35.357741 -119.255389 63 3740ft 93kts
15-May-18 18:18 35.368119 -119.227070 64 3598ft 87kts
15-May-18 18:19 35.377696 -119.200287 67 3489ft 87kts
15-May-18 18:20 35.387982 -119.173043 61 3330ft 89kts
15-May-18 18:21 35.393697 -119.142597 76 3049ft 94kts
15-May-18 18:22 35.399920 -119.116778 88 2693ft 93kts
15-May-18 18:23 35.394054 -119.086963 114 2322ft 94kts
15-May-18 18:24 35.378542 -119.062784 136 2193ft 88kts
15-May-18 18:25 35.367536 -119.041789 43 2076ft 66kts
15-May-18 18:26 35.381559 -119.025385 42 1942ft 71kts
15-May-18 18:27 35.401502 -119.023118 338 1782ft 80kts
15-May-18 18:28 35.419529 -119.038900 315 984ft 71kts
15-May-18 18:29 35.433111 -119.055372 316 518ft 57kts
15-May-18 18:30 35.440452 -119.063045 47 497ft 4kts
15-May-18 18:31 35.438249 -119.059226 124 497ft 34kts
15-May-18 18:32 35.437528 -119.056603 167 498ft 0kts

Navigation Log

Ident Type
1. KSMX Airport
2. KBFL Airport